Latest Coastal Weather Observations for Wilsons Promontory

IDV60701

Issued at 9:45 am EDT Tuesday 25 November 2014 (issued every 10 minutes, with the page automatically refreshed every 10 minutes)

About coastal observations | Map of coastal stations | Coastal observations for VIC | Marine services | Other Formats
Station Details ID: 085096 Name: WILSONS PROMONTORY LIGHTHOUSE Lat: -39.13 Lon: 146.42 Height: 95.0 m
Data from the previous 72 hours. | See also: Recent months at Wilsons Promontory
Date/Time
EDT
Temp

°C
Wind Pressure Rain
since 9am
mm
Weather Cloud Vis
km
Sea
Height
m
Swell
Dir
 
Speed
knots
Gust
knots
hPa Trend Height
m
Period
s
Dir
25/09:30am 14.9 W 27 37 1013.2 - 0.0 - - - - - - -
25/09:00am 14.4 W 26 37 1012.9 - 28.8 - - - - - - -
25/08:38am 14.2 W 29 39 1012.4 - 28.8 - - - - - - -
25/08:30am 14.0 W 30 39 1012.2 - 28.8 - - - - - - -
25/08:00am 14.3 W 26 37 1012.0 - 28.8 - - - - - - -
25/07:30am 13.6 W 27 38 1011.6 - 28.8 - - - - - - -
25/07:01am 13.2 W 27 40 1011.2 - 28.8 - - - - - - -
25/07:00am 13.2 W 28 37 1011.2 - 28.8 - - - - - - -
25/06:30am 12.8 W 26 38 1010.8 - 28.8 - - - - - - -
25/06:00am 13.1 W 28 41 1010.1 - 28.8 - - - - - - -
25/05:30am 13.0 W 25 37 1009.8 - 28.8 - - - - - - -
25/05:00am 12.8 W 30 40 1009.2 - 28.8 - - - - - - -
25/04:30am 12.4 W 27 41 1009.3 - 28.8 - - - - - - -
25/04:00am 13.2 W 30 43 1009.0 - 28.8 - - - - - - -
25/03:30am 13.2 W 24 36 1009.3 - 28.8 - - - - - - -
25/03:03am 13.2 W 23 33 1009.4 - 28.8 - - - - - - -
25/03:00am 13.1 W 23 32 1009.5 - 28.8 - - - - - - -
25/02:30am 13.2 W 24 37 1009.5 - 28.8 - - - - - - -
25/02:02am 12.9 W 20 31 1009.7 - 28.8 - - - - - - -
25/02:00am 12.9 W 19 28 1009.8 - 28.8 - - - - - - -
25/01:30am 13.0 W 24 36 1009.8 - 28.8 - - - - - - -
25/01:00am 12.8 W 24 34 1009.9 - 28.8 - - - - - - -
25/12:49am 13.4 W 21 31 1009.6 - 28.4 - - - - - - -
25/12:30am 13.4 W 26 34 1009.7 - 28.4 - - - - - - -
25/12:00am 13.5 W 24 33 1009.8 - 28.4 - - - - - - -
 
Date/Time
EDT
Temp

°C
Wind Pressure Rain
since 9am
mm
Weather Cloud Vis
km
Sea
Height
m
Swell
Dir
 
Speed
knots
Gust
knots
hPa Trend Height
m
Period
s
Dir
24/11:36pm 13.7 W 20 30 1009.9 - 28.4 - - - - - - -
24/11:30pm 13.8 W 21 29 1009.8 - 28.4 - - - - - - -
24/11:00pm 13.5 W 22 32 1009.4 - 28.4 - - - - - - -
24/10:37pm 13.9 W 22 33 1009.2 - 28.4 - - - - - - -
24/10:30pm 13.6 W 23 31 1009.4 - 28.4 - - - - - - -
24/10:12pm 13.2 W 18 28 1009.5 - 28.4 - - - - - - -
24/10:00pm 13.3 W 21 27 1009.7 - 28.4 - - - - - - -
24/09:30pm 13.3 W 22 29 1008.9 - 28.4 - - - - - - -
24/09:00pm 13.3 W 23 32 1008.5 - 28.4 - - - - - - -
24/08:41pm 13.4 W 21 31 1008.3 - 28.4 - - - - - - -
24/08:30pm 13.7 W 23 30 1008.0 - 28.4 - - - - - - -
24/08:02pm 13.7 W 21 31 1007.6 - 28.4 - - - - - - -
24/08:00pm 13.8 W 20 28 1007.6 - 28.4 - - - - - - -
24/07:34pm 14.0 WSW 28 38 1007.2 - 28.4 - - - - - - -
24/07:30pm 13.7 WSW 32 39 1006.8 - 28.4 - - - - - - -
24/07:04pm 14.2 WSW 29 39 1006.0 - 28.4 - - - - - - -
24/07:00pm 14.6 WSW 28 36 1006.0 - 28.4 - - - - - - -
24/06:48pm 14.6 W 23 35 1005.9 - 28.4 - - - - - - -
24/06:30pm 14.4 W 22 28 1005.7 - 28.4 - - - - - - -
24/06:05pm 14.7 W 22 33 1004.6 - 28.4 - - - - - - -
24/06:00pm 15.1 W 24 31 1004.8 - 28.4 - - - - - - -
24/05:43pm 15.1 W 23 33 1004.4 - 28.4 - - - - - - -
24/05:30pm 15.1 W 24 33 1004.6 - 28.4 - - - - - - -
24/05:01pm 15.7 W 24 34 1004.4 - 25.6 - - - - - - -
24/05:00pm 15.7 W 25 34 1004.2 - 25.6 - - - - - - -
24/04:30pm 16.6 W 20 31 1004.6 - 22.0 - - - - - - -
24/04:12pm 17.0 WNW 19 30 1004.6 - 20.8 - - - - - - -
24/04:00pm 17.0 WNW 16 25 1004.5 - 20.8 - - - - - - -
24/03:30pm 17.0 W 11 20 1004.6 - 19.2 - - - - - - -
24/03:00pm 15.9 N 12 21 1005.8 - 13.8 - - - - - - -
24/02:30pm 15.3 N 15 21 1005.8 - 10.4 - - - - - - -
24/02:00pm 14.9 NNE 14 18 1006.0 - 7.8 - - - - - - -
24/01:30pm 15.1 NNE 12 18 1007.2 - 7.4 - - - - - - -
24/01:00pm 15.1 N 14 18 1008.4 - 6.0 - - - - - - -
24/12:30pm 14.9 NNE 14 16 1008.4 - 5.0 - - - - - - -
24/12:00pm 14.6 NNE 13 16 1009.0 - 4.2 - - - - - - -
24/11:30am 14.4 NNE 12 13 1009.0 - 4.2 - - - - - - -
24/11:00am 15.0 N 3 5 1009.6 - 2.6 - - - - - - -
24/10:30am 15.1 NNW 3 10 1010.1 - 2.0 - - - - - - -
24/10:00am 15.5 WNW 15 20 1010.8 - 0.8 - - - - - - -
24/09:30am 16.3 NNE 18 25 1009.6 - 0.0 - - - - - - -
24/09:00am 17.1 NNE 17 23 1008.5 - 0.0 - - - - - - -
24/08:30am 17.0 NNE 18 23 1008.3 - 0.0 - - - - - - -
24/08:00am 17.0 NNE 18 23 1008.6 - 0.0 - - - - - - -
24/07:30am 17.1 NNE 20 29 1008.6 - 0.0 - - - - - - -
24/07:27am 17.5 NNE 19 29 1008.7 - 0.0 - - - - - - -
24/07:00am 17.3 NNE 19 24 1009.0 - 0.0 - - - - - - -
24/06:30am 16.5 NNE 18 25 1008.8 - 0.0 - - - - - - -
24/06:00am 16.2 NNE 19 25 1008.5 - 0.0 - - - - - - -
24/05:30am 16.1 NNE 19 25 1008.9 - 0.0 - - - - - - -
24/05:12am 16.3 N 17 27 1009.0 - 0.0 - - - - - - -
24/05:00am 16.4 NNE 17 24 1009.2 - 0.0 - - - - - - -
24/04:30am 16.0 NNE 16 21 1009.6 - 0.0 - - - - - - -
24/04:00am 16.0 NNE 15 20 1010.1 - 0.0 - - - - - - -
24/03:30am 16.0 NNE 15 19 1010.1 - 0.0 - - - - - - -
24/03:00am 16.2 NNE 15 21 1010.6 - 0.0 - - - - - - -
24/02:30am 15.4 NNE 12 15 1011.1 - 0.0 - - - - - - -
24/02:00am 15.0 NNE 13 15 1012.0 - 0.0 - - - - - - -
24/01:30am 14.9 NNE 14 17 1012.2 - 0.0 - - - - - - -
24/01:00am 14.9 NNE 12 14 1012.3 - 0.0 - - - - - - -
24/12:30am 14.9 NNE 13 15 1012.8 - 0.0 - - - - - - -
24/12:00am 14.9 NNE 13 16 1013.2 - 0.0 - - - - - - -
 
Date/Time
EDT
Temp

°C
Wind Pressure Rain
since 9am
mm
Weather Cloud Vis
km
Sea
Height
m
Swell
Dir
 
Speed
knots
Gust
knots
hPa Trend Height
m
Period
s
Dir
23/11:30pm 15.0 NNE 14 19 1013.5 - 0.0 - - - - - - -
23/11:00pm 15.4 NNE 11 15 1013.7 - 0.0 - - - - - - -
23/10:30pm 15.1 NNE 10 13 1014.0 - 0.0 - - - - - - -
23/10:00pm 15.2 N 9 11 1014.0 - 0.0 - - - - - - -
23/09:30pm 14.8 NNE 9 10 1014.0 - 0.0 - - - - - - -
23/09:00pm 15.3 NNE 5 6 1013.9 - 0.0 - - - - - - -
23/08:30pm 15.6 CALM 0 0 1014.0 - 0.0 - - - - - - -
23/08:00pm 15.8 W 4 5 1013.9 - 0.0 - - - - - - -
23/07:30pm 15.5 NNE 3 4 1013.5 - 0.0 - - - - - - -
23/07:00pm 15.3 E 4 5 1013.3 - 0.0 - - - - - - -
23/06:30pm 15.8 S 2 4 1013.0 - 0.0 - - - - - - -
23/06:00pm 16.2 WSW 8 10 1012.6 - 0.0 - - - - - - -
23/05:30pm 16.2 W 10 13 1012.5 - 0.0 - - - - - - -
23/05:00pm 16.6 WSW 14 19 1012.0 - 0.0 - - - - - - -
23/04:30pm 16.2 WSW 16 20 1011.7 - 0.0 - - - - - - -
23/04:00pm 16.0 W 16 21 1011.9 - 0.0 - - - - - - -
23/03:30pm 16.1 WSW 20 22 1011.8 - 0.0 - - - - - - -
23/03:00pm 16.5 SW 18 20 1011.7 - 0.0 - - - - - - -
23/02:30pm 16.7 SW 17 19 1011.6 - 0.0 - - - - - - -
23/02:00pm 16.6 SW 18 20 1011.7 - 0.0 - - - - - - -
23/01:30pm 16.4 SW 18 20 1011.6 - 0.0 - - - - - - -
23/01:00pm 16.3 WSW 17 19 1011.7 - 0.0 - - - - - - -
23/12:30pm 16.2 WSW 18 19 1011.8 - 0.0 - - - - - - -
23/12:00pm 16.6 W 14 19 1012.0 - 0.0 - - - - - - -
23/11:30am 16.3 WSW 16 20 1012.1 - 0.0 - - - - - - -
23/11:00am 16.6 W 16 21 1012.2 - 0.0 - - - - - - -
23/10:30am 16.2 W 15 20 1012.0 - 0.0 - - - - - - -
23/10:00am 17.2 W 11 16 1012.3 - 0.0 - - - - - - -
23/09:30am 16.6 W 14 19 1012.2 - 0.0 - - - - - - -
23/09:00am 16.4 W 13 19 1011.9 - 0.0 - - - - - - -
23/08:30am 16.2 W 14 19 1011.8 - 0.0 - - - - - - -
23/08:00am 15.9 W 13 20 1011.4 - 0.0 - - - - - - -
23/07:30am 15.8 W 14 20 1010.9 - 0.0 - - - - - - -
23/07:00am 14.9 W 10 18 1010.8 - 0.0 - - - - - - -
23/06:30am 14.6 W 13 18 1010.0 - 0.0 - - - - - - -
23/06:00am 14.3 W 14 21 1009.6 - 0.0 - - - - - - -
23/05:30am 14.5 W 15 21 1009.4 - 0.0 - - - - - - -
23/05:00am 14.9 W 17 25 1008.9 - 0.0 - - - - - - -
23/04:40am 14.9 W 17 27 1008.5 - 0.0 - - - - - - -
23/04:30am 15.0 W 18 26 1008.2 - 0.0 - - - - - - -
23/04:12am 15.0 W 18 28 1008.1 - 0.0 - - - - - - -
23/04:00am 15.1 W 19 27 1007.9 - 0.0 - - - - - - -
23/03:30am 15.5 W 24 35 1007.4 - 0.0 - - - - - - -
23/03:08am 15.8 W 27 37 1007.3 - 0.0 - - - - - - -
23/03:00am 15.9 W 29 37 1007.3 - 0.0 - - - - - - -
23/02:47am 16.0 W 29 41 1006.9 - 0.0 - - - - - - -
23/02:30am 16.2 WNW 27 36 1006.9 - 0.0 - - - - - - -
23/02:00am 17.1 WNW 24 36 1006.8 - 0.0 - - - - - - -
23/01:30am 17.3 WNW 24 35 1006.8 - 0.0 - - - - - - -
23/01:00am 17.8 WNW 21 31 1006.7 - 0.0 - - - - - - -
23/12:34am 18.5 NW 22 32 1006.6 - 0.0 - - - - - - -
23/12:30am 18.6 NW 23 32 1006.4 - 0.0 - - - - - - -
23/12:03am 19.8 WNW 21 31 1006.0 - 0.0 - - - - - - -
23/12:00am 20.1 WNW 21 28 1006.1 - 0.0 - - - - - - -
 
Date/Time
EDT
Temp

°C
Wind Pressure Rain
since 9am
mm
Weather Cloud Vis
km
Sea
Height
m
Swell
Dir
 
Speed
knots
Gust
knots
hPa Trend Height
m
Period
s
Dir
22/11:30pm 21.1 W 19 29 1006.3 - 0.0 - - - - - - -
22/11:00pm 21.0 W 16 26 1006.4 - 0.0 - - - - - - -
22/10:30pm 22.2 W 18 29 1006.4 - 0.0 - - - - - - -
22/10:15pm 23.2 WNW 15 25 1006.5 - 0.0 - - - - - - -
22/10:00pm 24.9 NW 11 24 1005.8 - 0.0 - - - - - - -
22/09:46pm 26.0 NNW 15 28 1005.1 - 0.0 - - - - - - -
22/09:30pm 25.9 N 14 23 1005.0 - 0.0 - - - - - - -
22/09:00pm 21.8 N 11 17 1005.1 - 0.0 - - - - - - -
22/08:30pm 21.9 N 11 16 1006.0 - 0.0 - - - - - - -
22/08:00pm 21.1 N 12 17 1006.2 - 0.0 - - - - - - -
22/07:30pm 21.8 NNE 11 15 1005.5 - 0.0 - - - - - - -
22/07:00pm 22.5 N 12 19 1005.3 - 0.0 - - - - - - -
22/06:30pm 21.2 NNE 14 17 1005.6 - 0.0 - - - - - - -
22/06:00pm 18.6 NNE 11 13 1005.7 - 0.0 - - - - - - -
22/05:30pm 17.8 NNE 11 12 1005.9 - 0.0 - - - - - - -
22/05:00pm 18.4 NNE 11 14 1006.1 - 0.0 - - - - - - -
22/04:30pm 18.1 NNE 11 13 1006.4 - 0.0 - - - - - - -
22/04:00pm 19.3 NNE 9 12 1006.9 - 0.0 - - - - - - -
22/03:30pm 20.1 NE 7 10 1007.2 - 0.0 - - - - - - -
22/03:00pm 20.7 E 4 7 1007.5 - 0.0 - - - - - - -
22/02:30pm 21.8 SSE 3 7 1008.0 - 0.0 - - - - - - -
22/02:00pm 18.7 NNE 8 11 1008.2 - 0.0 - - - - - - -
22/01:30pm 18.1 NNE 4 6 1008.5 - 0.0 - - - - - - -
22/01:00pm 17.0 ENE 13 16 1008.3 - 0.0 - - - - - - -
22/12:30pm 17.2 NE 13 17 1008.4 - 0.0 - - - - - - -
22/12:00pm 17.0 NE 13 18 1008.7 - 0.0 - - - - - - -
22/11:30am 16.9 NNE 18 22 1009.1 - 0.0 - - - - - - -
22/11:00am 16.5 NE 18 24 1009.2 - 0.0 - - - - - - -
22/10:30am 16.4 NE 19 22 1009.7 - 0.0 - - - - - - -
22/10:00am 16.7 NNE 20 25 1009.9 - 0.0 - - - - - - -

Other Formats:

Comma delimited format used in spreadsheet applications
http://www.bom.gov.au/fwo/IDV60701/IDV60701.94893.axf

JavaScript Object Notation format (JSON) in row-major order
http://www.bom.gov.au/fwo/IDV60701/IDV60701.94893.json